• Join FlightAware (Why Join?)
  • Login
  • US Flag 
08:48AM EDT


 

Airport Tracker/Info


-or-


 

Live Flight TrackerFlight Track Log ✈ SWA2975 ✈ 25-Jun-2013 ✈ KMDW - KALB

Flight Track Log - Related Links

Times and Time Zones

All times are in EDT time to prevent confusion due to time zone crossing. See the SWA2975 flight status page for this flight to view local times or setup timezone preferences in your user account.

Time Position Orientation Groundspeed Altitude Reporting Facility
EDT Latitude Longitude Course Direction KTS MPH feet Rate Location/Type
11:32PM 41.7750 -87.7670 240° Southwest 150 173 1,700  Level FlightAware
11:32PM 41.7660 -87.7950 247° West 175 201 2,600 1,620 Climbing FlightAware
11:32PM 41.7610 -87.8120 248° West 199 229 3,000 1,860 Climbing FlightAware
11:33PM 41.7510 -87.8460 248° West 224 258 4,000 2,580 Climbing FlightAware
11:33PM 41.7460 -87.8610 246° West 221 254 4,700 3,480 Climbing FlightAware
11:33PM 41.7560 -87.8970 290° West 224 258 6,400 3,180 Climbing FlightAware
11:34PM 41.7760 -87.9300 309° West 229 264 7,900 3,120 Climbing FlightAware
11:34PM 41.7850 -87.9430 313° West 228 262 8,600 3,420 Climbing FlightAware
11:34PM 41.7980 -87.9560 323° Northwest 229 264 9,500 2,700 Climbing FlightAware
11:35PM 41.8400 -87.9750 341° North 254 292 11,100 2,700 Climbing FlightAware
11:36PM 41.8880 -87.9940 344° North 265 305 13,200 2,700 Climbing FlightAware
11:36PM 41.9240 -87.9910 North 274 315 14,400 1,980 Climbing FlightAware
11:37PM 41.9790 -87.9880 North 312 359 15,500 2,040 Climbing FlightAware
11:38PM 42.0450 -87.9840 North 325 374 17,300 2,220 Climbing FlightAware
11:38PM 42.1090 -87.9810 North 345 397 18,700 1,980 Climbing FlightAware
11:39PM 42.1690 -87.9800 North 357 411 20,000 1,860 Climbing FlightAware
11:40PM 42.2440 -87.9780 North 377 434 21,300 1,440 Climbing FlightAware
11:40PM 42.3210 -87.9430 19° North 414 476 22,100 1,140 Climbing FlightAware
11:41PM 42.3960 -87.8960 25° Northeast 429 494 23,000 600 Climbing FlightAware
11:42PM 42.4690 -87.8520 24° Northeast 428 493 23,000 540 Level FlightAware
11:43PM 42.5470 -87.8050 24° Northeast 430 495 23,800 1,260 Climbing FlightAware
11:43PM 42.6300 -87.7550 24° Northeast 443 510 24,900 1,560 Climbing FlightAware
11:44PM 42.7050 -87.7090 24° Northeast 452 520 26,000 1,560 Climbing FlightAware
11:45PM 42.7850 -87.6580 25° Northeast 459 528 27,100 1,440 Climbing FlightAware
11:45PM 42.8380 -87.5700 51° Northeast 473 544 28,000 1,260 Climbing FlightAware
11:46PM 42.8620 -87.4440 75° East 483 556 28,900 1,200 Climbing FlightAware
11:47PM 42.8850 -87.3200 76° East 491 565 29,700 1,140 Climbing FlightAware
11:47PM 42.9060 -87.1990 77° East 497 572 30,500 900 Climbing FlightAware
11:48PM 42.9320 -87.0590 76° East 500 575 31,000 300 Climbing FlightAware
11:49PM 42.9540 -86.9360 76° East 501 577 31,000  Level FlightAware
11:50PM 42.9770 -86.8060 76° East 505 581 31,000  Level FlightAware
11:50PM 42.9980 -86.6850 77° East 506 582 31,000  Level FlightAware
11:51PM 43.0230 -86.5400 77° East 507 583 31,000  Level FlightAware
11:52PM 43.0460 -86.4090 76° East 509 586 31,000 660 Level FlightAware
11:52PM 43.0690 -86.2750 77° East 508 585 32,000 960 Climbing FlightAware
11:53PM 43.0900 -86.1500 77° East 508 585 32,400 1,140 Climbing FlightAware
11:54PM 43.1130 -86.0150 77° East 500 575 33,600 1,440 Climbing FlightAware
11:54PM 43.1250 -85.8820 83° East 496 571 34,500 1,020 Climbing FlightAware
11:55PM 43.1310 -85.7570 86° East 498 573 35,000 360 Climbing FlightAware
11:56PM 43.1380 -85.6210 86° East 499 574 35,000  Level FlightAware
11:57PM 43.1450 -85.4970 86° East 501 577 35,000  Level FlightAware
11:57PM 43.1520 -85.3560 86° East 507 583 35,000  Level FlightAware
11:58PM 43.1590 -85.2280 86° East 510 587 35,000  Level FlightAware
11:59PM 43.1660 -85.0810 86° East 511 588 35,000  Level FlightAware
11:59PM 43.1720 -84.9500 86° East 513 590 35,000  Level FlightAware
12:00AM 43.1740 -84.9080 86° East 512 589 35,000  Level FlightAware
12:01AM 43.1880 -84.6150 86° East 514 592 35,000  Level FlightAware
12:02AM 43.1930 -84.4850 87° East 514 592 35,000  Level FlightAware
12:03AM 43.2000 -84.3350 86° East 516 594 35,000  Level FlightAware
12:03AM 43.2050 -84.2060 87° East 516 594 35,000  Level FlightAware
12:04AM 43.2110 -84.0620 87° East 515 593 35,000  Level FlightAware
12:05AM 43.2160 -83.9360 87° East 515 593 35,000  Level FlightAware
12:05AM 43.2210 -83.8040 87° East 514 592 35,000  Level FlightAware
12:06AM 43.2260 -83.6710 87° East 512 589 35,000  Level FlightAware
12:07AM 43.2310 -83.5280 87° East 512 589 35,000  Level FlightAware
12:07AM 43.2350 -83.3980 88° East 512 589 35,000  Level FlightAware
12:08AM 43.2400 -83.2600 87° East 512 589 35,000  Level FlightAware
12:09AM 43.2440 -83.1170 88° East 513 590 35,000  Level FlightAware
12:09AM 43.2480 -82.9890 87° East 517 595 35,000  Level FlightAware
12:10AM 43.2520 -82.8450 88° East 517 595 35,000  Level FlightAware
12:11AM 43.2580 -82.7120 86° East 521 600 35,000  Level FlightAware
12:12AM 43.2770 -82.5740 79° East 521 600 35,000  Level FlightAware
12:12AM 43.2960 -82.4360 79° East 522 601 35,000  Level FlightAware
12:13AM 43.3090 -82.2940 83° East 523 602 35,000  Level FlightAware
12:14AM 43.3060 -82.1530 92° East 523 602 35,000  Level FlightAware
12:14AM 43.3030 -82.0110 92° East 525 604 35,000  Level FlightAware
12:16AM 43.2940 -81.6560 92° East 525 604 35,000  Level FlightAware
12:17AM 43.2900 -81.5070 92° East 525 604 35,000  Level FlightAware
12:18AM 43.2860 -81.3730 92° East 524 603 35,000  Level FlightAware
12:18AM 43.2820 -81.2260 92° East 520 598 35,000  Level FlightAware
12:19AM 43.2770 -81.0780 93° East 517 595 35,000  Level FlightAware
12:20AM 43.2730 -80.9470 92° East 516 594 35,000  Level FlightAware
12:21AM 43.2680 -80.8160 93° East 519 597 35,000  Level FlightAware
12:21AM 43.2630 -80.6680 93° East 521 600 35,000  Level FlightAware
12:22AM 43.2580 -80.5360 93° East 521 600 35,000  Level FlightAware
12:23AM 43.2540 -80.4040 92° East 521 600 35,000  Level FlightAware
12:23AM 43.2490 -80.2810 93° East 521 600 35,000  Level FlightAware
12:24AM 43.2430 -80.1270 93° East 519 597 35,000  Level FlightAware
12:25AM 43.2370 -79.9950 94° East 519 597 35,000  Level FlightAware
12:25AM 43.2310 -79.8470 93° East 518 596 35,000  Level FlightAware
12:26AM 43.2260 -79.7150 93° East 516 594 35,000  Level FlightAware
12:27AM 43.2190 -79.5770 94° East 513 590 35,000  Level FlightAware
12:28AM 43.2130 -79.4400 93° East 512 589 35,000  Level FlightAware
12:28AM 43.2060 -79.2970 94° East 509 586 35,000  Level FlightAware
12:29AM 43.2000 -79.1680 94° East 507 583 35,000  Level FlightAware
12:30AM 43.1940 -79.0430 94° East 504 580 35,000  Level FlightAware
12:30AM 43.1880 -78.9110 94° East 503 579 35,000  Level FlightAware
12:31AM 43.1810 -78.7860 94° East 503 579 35,000  Level FlightAware
12:32AM 43.1740 -78.6430 94° East 503 579 35,000  Level FlightAware
12:32AM 43.1670 -78.5160 94° East 505 581 35,000  Level FlightAware
12:33AM 43.1580 -78.3750 95° East 506 582 35,000  Level FlightAware
12:34AM 43.1480 -78.2470 96° East 506 582 35,000  Level FlightAware
12:35AM 43.1380 -78.1070 96° East 507 583 35,000  Level FlightAware
12:35AM 43.1290 -77.9790 95° East 507 583 35,000  Level FlightAware
12:36AM 43.1180 -77.8320 96° East 508 585 35,000  Level FlightAware
12:37AM 43.1090 -77.7060 96° East 508 585 35,000  Level FlightAware
12:37AM 43.0980 -77.5600 96° East 509 586 35,000 -180 Level FlightAware
12:38AM 43.0880 -77.4330 96° East 509 586 34,800 -660 Descending FlightAware
12:39AM 43.0770 -77.2900 96° East 502 578 34,100 -1,020 Descending FlightAware
12:39AM 43.0680 -77.1810 96° East 501 577 33,500 -1,020 Descending FlightAware
12:40AM 43.0570 -77.0410 96° East 503 579 32,800 -1,020 Descending FlightAware
12:41AM 43.0460 -76.9140 97° East 502 578 32,100 -1,020 Descending FlightAware
12:42AM 43.0350 -76.7730 96° East 496 571 31,400 -1,020 Descending FlightAware
12:42AM 43.0230 -76.6360 97° East 487 560 30,600 -1,080 Descending FlightAware
12:43AM 43.0140 -76.5310 97° East 481 554 30,000 -1,080 Descending FlightAware
12:44AM 43.0030 -76.3950 96° East 477 549 29,200 -1,080 Descending FlightAware
12:44AM 42.9920 -76.2790 97° East 468 539 28,500 -1,020 Descending FlightAware
12:45AM 42.9810 -76.1480 97° East 466 536 27,800 -1,020 Descending FlightAware
12:46AM 42.9690 -76.0140 97° East 465 535 27,000 -1,020 Descending FlightAware
12:46AM 42.9590 -75.9000 97° East 450 518 26,400 -1,020 Descending FlightAware
12:47AM 42.9480 -75.7890 98° East 448 516 25,700 -1,080 Descending FlightAware
12:48AM 42.9370 -75.6670 97° East 440 506 24,900 -1,140 Descending FlightAware
12:49AM 42.9270 -75.5610 97° East 431 496 24,100 -1,680 Descending FlightAware
12:49AM 42.9150 -75.4390 98° East 420 483 22,600 -2,160 Descending FlightAware
12:50AM 42.9000 -75.2730 97° East 413 475 20,500 -2,100 Descending FlightAware
12:51AM 42.8890 -75.1690 98° East 414 476 19,300 -1,920 Descending FlightAware
12:52AM 42.8790 -75.0600 97° East 409 471 17,900 -1,980 Descending FlightAware
12:52AM 42.8690 -74.9580 98° East 403 464 16,600 -1,980 Descending FlightAware
12:53AM 42.8580 -74.8520 98° East 396 456 15,200 -1,980 Descending FlightAware
12:54AM 42.8480 -74.7530 98° East 389 448 13,900 -1,440 Descending FlightAware
12:54AM 42.8380 -74.6500 98° East 384 442 13,200 -540 Descending FlightAware
12:55AM 42.8320 -74.5800 97° East 384 442 13,200  Level FlightAware
12:56AM 42.8230 -74.4860 97° East 384 442 13,200 -1,800 Level FlightAware
12:59AM 42.8830 -74.0980 78° East 296 341 5,900 -2,280 Descending FlightAware
12:59AM 42.8880 -74.0670 78° East 296 341 5,400 -2,160 Descending FlightAware
01:00AM 42.8960 -74.0160 78° East 300 345 4,400 -1,800 Descending FlightAware
01:00AM 42.8990 -73.9950 79° East 297 342 4,200 -720 Descending FlightAware
01:01AM 42.9060 -73.9210 83° East 275 316 3,800 -720 Descending FlightAware
01:01AM 42.8950 -73.8730 107° East 256 295 3,400 -900 Descending FlightAware
01:02AM 42.8860 -73.8380 109° East 239 275 3,000 -1,020 Descending FlightAware
01:02AM 42.8547 -73.8108 109° East 201 231 2,100 -480 Descending Boston Center
01:03AM 42.8328 -73.7453 115° Southeast 201 231 2,100  Level Boston Center